sensor_id;sensor_type;location;lat;lon;timestamp;pressure;altitude;pressure_sealevel;temperature;humidity
45357;BME280;31092;51.924;21.448;2023-04-06T00:01:19;100837.22;;;-1.63;100.00
45357;BME280;31092;51.924;21.448;2023-04-06T00:03:45;100790.97;;;-1.91;100.00
45357;BME280;31092;51.924;21.448;2023-04-06T00:06:10;100690.50;;;-2.43;100.00
45357;BME280;31092;51.924;21.448;2023-04-06T00:08:36;100816.78;;;-1.60;100.00
45357;BME280;31092;51.924;21.448;2023-04-06T00:11:01;100782.41;;;-1.77;100.00
45357;BME280;31092;51.924;21.448;2023-04-06T00:13:27;100681.31;;;-2.34;100.00
45357;BME280;31092;51.924;21.448;2023-04-06T00:15:52;100696.97;;;-2.12;100.00
45357;BME280;31092;51.924;21.448;2023-04-06T00:18:18;100793.63;;;-1.55;100.00
45357;BME280;31092;51.924;21.448;2023-04-06T00:20:44;100723.28;;;-1.92;100.00
45357;BME280;31092;51.924;21.448;2023-04-06T00:23:10;100791.28;;;-1.61;100.00
45357;BME280;31092;51.924;21.448;2023-04-06T00:25:35;100710.59;;;-2.03;100.00
45357;BME280;31092;51.924;21.448;2023-04-06T00:28:01;100721.06;;;-2.01;100.00
45357;BME280;31092;51.924;21.448;2023-04-06T00:30:26;100724.28;;;-1.95;100.00
45357;BME280;31092;51.924;21.448;2023-04-06T00:32:52;100711.34;;;-2.01;100.00
45357;BME280;31092;51.924;21.448;2023-04-06T00:35:17;100792.78;;;-1.55;100.00
45357;BME280;31092;51.924;21.448;2023-04-06T00:37:45;100719.97;;;-1.97;100.00
45357;BME280;31092;51.924;21.448;2023-04-06T00:40:11;100674.88;;;-2.29;100.00
45357;BME280;31092;51.924;21.448;2023-04-06T00:42:36;100705.81;;;-2.13;100.00
45357;BME280;31092;51.924;21.448;2023-04-06T00:45:02;100806.97;;;-1.58;100.00
45357;BME280;31092;51.924;21.448;2023-04-06T00:47:29;100694.63;;;-2.19;100.00
45357;BME280;31092;51.924;21.448;2023-04-06T00:49:55;100699.81;;;-2.17;100.00
45357;BME280;31092;51.924;21.448;2023-04-06T00:52:21;100783.91;;;-1.54;100.00
45357;BME280;31092;51.924;21.448;2023-04-06T00:54:46;100782.13;;;-1.54;100.00
45357;BME280;31092;51.924;21.448;2023-04-06T00:57:12;100708.28;;;-1.91;100.00
45357;BME280;31092;51.924;21.448;2023-04-06T00:59:38;100727.00;;;-1.79;100.00
45357;BME280;31092;51.924;21.448;2023-04-06T01:02:04;100794.75;;;-1.41;100.00
45357;BME280;31092;51.924;21.448;2023-04-06T01:04:30;100703.06;;;-1.93;100.00
45357;BME280;31092;51.924;21.448;2023-04-06T01:06:56;100685.66;;;-1.97;100.00
45357;BME280;31092;51.924;21.448;2023-04-06T01:09:22;100662.28;;;-2.05;100.00
45357;BME280;31092;51.924;21.448;2023-04-06T01:11:47;100768.47;;;-1.45;100.00
45357;BME280;31092;51.924;21.448;2023-04-06T01:14:13;100731.94;;;-1.54;100.00
45357;BME280;31092;51.924;21.448;2023-04-06T01:16:40;100685.94;;;-1.84;100.00
45357;BME280;31092;51.924;21.448;2023-04-06T01:19:11;100761.56;;;-1.30;100.00
45357;BME280;31092;51.924;21.448;2023-04-06T01:21:37;100644.13;;;-1.94;100.00
45357;BME280;31092;51.924;21.448;2023-04-06T01:24:03;100656.78;;;-1.83;100.00
45357;BME280;31092;51.924;21.448;2023-04-06T01:26:28;100686.66;;;-1.63;100.00
45357;BME280;31092;51.924;21.448;2023-04-06T01:28:55;100726.03;;;-1.41;100.00
45357;BME280;31092;51.924;21.448;2023-04-06T01:31:21;100676.94;;;-1.63;100.00
45357;BME280;31092;51.924;21.448;2023-04-06T01:33:46;100747.94;;;-1.22;100.00
45357;BME280;31092;51.924;21.448;2023-04-06T01:36:12;100749.75;;;-1.23;100.00
45357;BME280;31092;51.924;21.448;2023-04-06T01:38:37;100673.25;;;-1.60;100.00
45357;BME280;31092;51.924;21.448;2023-04-06T01:41:03;100736.28;;;-1.18;100.00
45357;BME280;31092;51.924;21.448;2023-04-06T01:43:28;100743.13;;;-1.14;100.00
45357;BME280;31092;51.924;21.448;2023-04-06T01:45:54;100703.13;;;-1.41;100.00
45357;BME280;31092;51.924;21.448;2023-04-06T01:48:19;100674.84;;;-1.56;100.00
45357;BME280;31092;51.924;21.448;2023-04-06T01:50:45;100682.59;;;-1.53;100.00
45357;BME280;31092;51.924;21.448;2023-04-06T01:53:10;100703.34;;;-1.46;100.00
45357;BME280;31092;51.924;21.448;2023-04-06T01:55:36;100661.94;;;-1.62;100.00
45357;BME280;31092;51.924;21.448;2023-04-06T01:58:01;100734.44;;;-1.16;100.00
45357;BME280;31092;51.924;21.448;2023-04-06T02:00:27;100628.31;;;-1.76;100.00
45357;BME280;31092;51.924;21.448;2023-04-06T02:02:53;100750.53;;;-1.03;100.00
45357;BME280;31092;51.924;21.448;2023-04-06T02:05:19;100755.09;;;-1.07;100.00
45357;BME280;31092;51.924;21.448;2023-04-06T02:07:45;100744.50;;;-1.07;100.00
45357;BME280;31092;51.924;21.448;2023-04-06T02:10:12;100615.00;;;-1.75;100.00
45357;BME280;31092;51.924;21.448;2023-04-06T02:12:38;100703.00;;;-1.22;100.00
45357;BME280;31092;51.924;21.448;2023-04-06T02:15:04;100631.41;;;-1.68;100.00
45357;BME280;31092;51.924;21.448;2023-04-06T02:17:30;100639.00;;;-1.62;100.00
45357;BME280;31092;51.924;21.448;2023-04-06T02:19:55;100721.66;;;-1.08;100.00
45357;BME280;31092;51.924;21.448;2023-04-06T02:22:21;100634.44;;;-1.58;100.00
45357;BME280;31092;51.924;21.448;2023-04-06T02:24:46;100624.88;;;-1.61;100.00
45357;BME280;31092;51.924;21.448;2023-04-06T02:27:13;100611.22;;;-1.69;100.00
45357;BME280;31092;51.924;21.448;2023-04-06T02:29:38;100690.75;;;-1.23;100.00
45357;BME280;31092;51.924;21.448;2023-04-06T02:32:04;100735.16;;;-0.97;100.00
45357;BME280;31092;51.924;21.448;2023-04-06T02:34:30;100587.16;;;-1.80;100.00
45357;BME280;31092;51.924;21.448;2023-04-06T02:36:55;100612.59;;;-1.62;100.00
45357;BME280;31092;51.924;21.448;2023-04-06T02:39:21;100599.84;;;-1.71;100.00
45357;BME280;31092;51.924;21.448;2023-04-06T02:41:46;100590.38;;;-1.75;100.00
45357;BME280;31092;51.924;21.448;2023-04-06T02:44:12;100704.16;;;-1.10;100.00
45357;BME280;31092;51.924;21.448;2023-04-06T02:46:37;100627.91;;;-1.51;100.00
45357;BME280;31092;51.924;21.448;2023-04-06T02:49:03;100684.97;;;-1.14;100.00
45357;BME280;31092;51.924;21.448;2023-04-06T02:51:28;100629.38;;;-1.46;100.00
45357;BME280;31092;51.924;21.448;2023-04-06T02:53:54;100690.88;;;-1.09;100.00
45357;BME280;31092;51.924;21.448;2023-04-06T02:56:19;100710.69;;;-1.00;100.00
45357;BME280;31092;51.924;21.448;2023-04-06T02:58:46;100678.06;;;-1.16;100.00
45357;BME280;31092;51.924;21.448;2023-04-06T03:01:12;100700.19;;;-1.02;100.00
45357;BME280;31092;51.924;21.448;2023-04-06T03:03:37;100613.59;;;-1.47;100.00
45357;BME280;31092;51.924;21.448;2023-04-06T03:06:03;100640.78;;;-1.28;100.00
45357;BME280;31092;51.924;21.448;2023-04-06T03:08:29;100584.34;;;-1.60;100.00
45357;BME280;31092;51.924;21.448;2023-04-06T03:10:54;100704.66;;;-0.86;100.00
45357;BME280;31092;51.924;21.448;2023-04-06T03:13:20;100699.47;;;-0.88;100.00
45357;BME280;31092;51.924;21.448;2023-04-06T03:15:46;100707.16;;;-0.83;100.00
45357;BME280;31092;51.924;21.448;2023-04-06T03:18:11;100719.81;;;-0.73;100.00
45357;BME280;31092;51.924;21.448;2023-04-06T03:20:37;100700.75;;;-0.79;100.00
45357;BME280;31092;51.924;21.448;2023-04-06T03:23:02;100723.81;;;-0.65;100.00
45357;BME280;31092;51.924;21.448;2023-04-06T03:25:28;100715.28;;;-0.70;100.00
45357;BME280;31092;51.924;21.448;2023-04-06T03:27:55;100628.94;;;-1.21;100.00
45357;BME280;31092;51.924;21.448;2023-04-06T03:30:21;100647.56;;;-1.06;100.00
45357;BME280;31092;51.924;21.448;2023-04-06T03:32:46;100625.19;;;-1.16;100.00
45357;BME280;31092;51.924;21.448;2023-04-06T03:35:12;100667.09;;;-0.93;100.00
45357;BME280;31092;51.924;21.448;2023-04-06T03:37:37;100621.63;;;-1.15;100.00
45357;BME280;31092;51.924;21.448;2023-04-06T03:40:04;100714.09;;;-0.65;100.00
45357;BME280;31092;51.924;21.448;2023-04-06T03:42:29;100702.13;;;-0.72;100.00
45357;BME280;31092;51.924;21.448;2023-04-06T03:44:56;100703.66;;;-0.68;100.00
45357;BME280;31092;51.924;21.448;2023-04-06T03:47:21;100612.91;;;-1.17;100.00
45357;BME280;31092;51.924;21.448;2023-04-06T03:49:47;100670.38;;;-0.88;100.00
45357;BME280;31092;51.924;21.448;2023-04-06T03:52:12;100703.88;;;-0.71;100.00
45357;BME280;31092;51.924;21.448;2023-04-06T03:54:38;100698.47;;;-0.69;100.00
45357;BME280;31092;51.924;21.448;2023-04-06T03:57:04;100683.19;;;-0.80;100.00
45357;BME280;31092;51.924;21.448;2023-04-06T03:59:29;100600.19;;;-1.27;100.00
45357;BME280;31092;51.924;21.448;2023-04-06T04:01:55;100632.03;;;-1.12;100.00
45357;BME280;31092;51.924;21.448;2023-04-06T04:04:21;100709.22;;;-0.73;100.00
45357;BME280;31092;51.924;21.448;2023-04-06T04:06:46;100704.88;;;-0.74;100.00
45357;BME280;31092;51.924;21.448;2023-04-06T04:09:12;100601.19;;;-1.29;100.00
45357;BME280;31092;51.924;21.448;2023-04-06T04:11:37;100643.72;;;-1.01;100.00
45357;BME280;31092;51.924;21.448;2023-04-06T04:14:03;100669.53;;;-0.88;100.00
45357;BME280;31092;51.924;21.448;2023-04-06T04:16:29;100684.97;;;-0.81;100.00
45357;BME280;31092;51.924;21.448;2023-04-06T04:18:54;100676.94;;;-0.79;100.00
45357;BME280;31092;51.924;21.448;2023-04-06T04:21:20;100707.38;;;-0.55;100.00
45357;BME280;31092;51.924;21.448;2023-04-06T04:23:45;100685.94;;;-0.66;100.00
45357;BME280;31092;51.924;21.448;2023-04-06T04:26:11;100699.00;;;-0.47;100.00
45357;BME280;31092;51.924;21.448;2023-04-06T04:28:36;100617.06;;;-0.96;100.00
45357;BME280;31092;51.924;21.448;2023-04-06T04:31:02;100682.13;;;-0.44;100.00
45357;BME280;31092;51.924;21.448;2023-04-06T04:33:27;100592.91;;;-0.90;100.00
45357;BME280;31092;51.924;21.448;2023-04-06T04:35:53;100670.56;;;-0.43;100.00
45357;BME280;31092;51.924;21.448;2023-04-06T04:38:18;100651.13;;;-0.42;100.00
45357;BME280;31092;51.924;21.448;2023-04-06T04:40:44;100633.91;;;-0.50;100.00
45357;BME280;31092;51.924;21.448;2023-04-06T04:43:09;100578.25;;;-0.80;100.00
45357;BME280;31092;51.924;21.448;2023-04-06T04:45:35;100690.63;;;-0.08;100.00
45357;BME280;31092;51.924;21.448;2023-04-06T04:48:00;100608.19;;;-0.47;100.00
45357;BME280;31092;51.924;21.448;2023-04-06T04:50:26;100682.28;;;0.00;100.00
45357;BME280;31092;51.924;21.448;2023-04-06T04:52:51;100546.75;;;-0.68;100.00
45357;BME280;31092;51.924;21.448;2023-04-06T04:55:16;100687.44;;;0.17;100.00
45357;BME280;31092;51.924;21.448;2023-04-06T04:57:43;100683.69;;;0.21;100.00
45357;BME280;31092;51.924;21.448;2023-04-06T05:00:08;100649.88;;;0.11;100.00
45357;BME280;31092;51.924;21.448;2023-04-06T05:02:34;100598.56;;;-0.18;100.00
45357;BME280;31092;51.924;21.448;2023-04-06T05:05:00;100670.91;;;0.28;100.00
45357;BME280;31092;51.924;21.448;2023-04-06T05:07:25;100623.13;;;-0.01;100.00
45357;BME280;31092;51.924;21.448;2023-04-06T05:09:51;100586.97;;;-0.16;100.00
45357;BME280;31092;51.924;21.448;2023-04-06T05:12:18;100637.31;;;0.14;100.00
45357;BME280;31092;51.924;21.448;2023-04-06T05:14:43;100633.59;;;0.17;100.00
45357;BME280;31092;51.924;21.448;2023-04-06T05:17:09;100655.78;;;0.30;100.00
45357;BME280;31092;51.924;21.448;2023-04-06T05:19:35;100625.59;;;0.18;100.00
45357;BME280;31092;51.924;21.448;2023-04-06T05:22:00;100587.88;;;-0.01;100.00
45357;BME280;31092;51.924;21.448;2023-04-06T05:24:26;100642.28;;;0.35;100.00
45357;BME280;31092;51.924;21.448;2023-04-06T05:26:52;100653.09;;;0.46;100.00
45357;BME280;31092;51.924;21.448;2023-04-06T05:29:18;100624.50;;;0.37;100.00
45357;BME280;31092;51.924;21.448;2023-04-06T05:31:44;100655.88;;;0.59;100.00
45357;BME280;31092;51.924;21.448;2023-04-06T05:34:09;100569.47;;;0.12;100.00
45357;BME280;31092;51.924;21.448;2023-04-06T05:36:35;100639.41;;;0.54;100.00
45357;BME280;31092;51.924;21.448;2023-04-06T05:39:01;100564.56;;;0.20;100.00
45357;BME280;31092;51.924;21.448;2023-04-06T05:41:26;100559.25;;;0.20;100.00
45357;BME280;31092;51.924;21.448;2023-04-06T05:43:52;100569.56;;;0.24;100.00
45357;BME280;31092;51.924;21.448;2023-04-06T05:46:18;100663.09;;;0.85;100.00
45357;BME280;31092;51.924;21.448;2023-04-06T05:48:43;100564.69;;;0.33;100.00
45357;BME280;31092;51.924;21.448;2023-04-06T05:51:10;100570.00;;;0.33;100.00
45357;BME280;31092;51.924;21.448;2023-04-06T05:53:35;100641.78;;;0.73;100.00
45357;BME280;31092;51.924;21.448;2023-04-06T05:56:02;100663.84;;;0.87;100.00
45357;BME280;31092;51.924;21.448;2023-04-06T05:58:28;100638.19;;;0.74;100.00
45357;BME280;31092;51.924;21.448;2023-04-06T06:01:09;100569.53;;;0.40;100.00
45357;BME280;31092;51.924;21.448;2023-04-06T06:03:35;100616.13;;;0.73;100.00
45357;BME280;31092;51.924;21.448;2023-04-06T06:06:01;100655.44;;;0.95;100.00
45357;BME280;31092;51.924;21.448;2023-04-06T06:08:27;100607.13;;;0.76;100.00
45357;BME280;31092;51.924;21.448;2023-04-06T06:10:53;100535.16;;;0.39;100.00
45357;BME280;31092;51.924;21.448;2023-04-06T06:13:18;100638.66;;;1.09;100.00
45357;BME280;31092;51.924;21.448;2023-04-06T06:15:44;100634.69;;;1.02;100.00
45357;BME280;31092;51.924;21.448;2023-04-06T06:18:09;100633.66;;;1.04;100.00
45357;BME280;31092;51.924;21.448;2023-04-06T06:20:35;100620.09;;;1.09;100.00
45357;BME280;31092;51.924;21.448;2023-04-06T06:23:01;100542.44;;;0.64;100.00
45357;BME280;31092;51.924;21.448;2023-04-06T06:25:26;100628.81;;;1.11;100.00
45357;BME280;31092;51.924;21.448;2023-04-06T06:27:52;100535.16;;;0.53;100.00
45357;BME280;31092;51.924;21.448;2023-04-06T06:30:17;100644.44;;;1.15;100.00
45357;BME280;31092;51.924;21.448;2023-04-06T06:32:43;100597.44;;;0.89;100.00
45357;BME280;31092;51.924;21.448;2023-04-06T06:35:08;100563.66;;;0.64;100.00
45357;BME280;31092;51.924;21.448;2023-04-06T06:37:34;100638.19;;;1.16;100.00
45357;BME280;31092;51.924;21.448;2023-04-06T06:39:59;100519.91;;;0.57;100.00
45357;BME280;31092;51.924;21.448;2023-04-06T06:42:25;100535.63;;;0.74;100.00
45357;BME280;31092;51.924;21.448;2023-04-06T06:44:51;100585.91;;;1.04;100.00
45357;BME280;31092;51.924;21.448;2023-04-06T06:47:16;100543.97;;;0.82;100.00
45357;BME280;31092;51.924;21.448;2023-04-06T06:49:42;100611.06;;;1.26;100.00
45357;BME280;31092;51.924;21.448;2023-04-06T06:52:07;100548.38;;;0.96;100.00
45357;BME280;31092;51.924;21.448;2023-04-06T06:54:33;100543.53;;;1.03;100.00
45357;BME280;31092;51.924;21.448;2023-04-06T06:56:58;100591.34;;;1.30;100.00
45357;BME280;31092;51.924;21.448;2023-04-06T06:59:25;100630.63;;;1.52;100.00
45357;BME280;31092;51.924;21.448;2023-04-06T07:01:50;100620.72;;;1.41;100.00
45357;BME280;31092;51.924;21.448;2023-04-06T07:04:16;100587.41;;;1.08;100.00
45357;BME280;31092;51.924;21.448;2023-04-06T07:06:41;100625.75;;;1.31;100.00
45357;BME280;31092;51.924;21.448;2023-04-06T07:09:07;100573.13;;;1.11;100.00
45357;BME280;31092;51.924;21.448;2023-04-06T07:11:35;100541.38;;;0.95;100.00
45357;BME280;31092;51.924;21.448;2023-04-06T07:14:01;100520.75;;;0.86;100.00
45357;BME280;31092;51.924;21.448;2023-04-06T07:16:26;100541.66;;;1.05;100.00
45357;BME280;31092;51.924;21.448;2023-04-06T07:18:52;100531.91;;;1.05;100.00
45357;BME280;31092;51.924;21.448;2023-04-06T07:21:17;100588.97;;;1.39;100.00
45357;BME280;31092;51.924;21.448;2023-04-06T07:23:43;100562.56;;;1.24;100.00
45357;BME280;31092;51.924;21.448;2023-04-06T07:26:08;100528.69;;;1.00;100.00
45357;BME280;31092;51.924;21.448;2023-04-06T07:28:34;100525.78;;;0.90;100.00
45357;BME280;31092;51.924;21.448;2023-04-06T07:31:00;100609.44;;;1.37;100.00
45357;BME280;31092;51.924;21.448;2023-04-06T07:33:25;100533.22;;;0.98;100.00
45357;BME280;31092;51.924;21.448;2023-04-06T07:35:55;100600.41;;;1.54;100.00
45357;BME280;31092;51.924;21.448;2023-04-06T07:38:21;100511.91;;;1.14;100.00
45357;BME280;31092;51.924;21.448;2023-04-06T07:40:47;100509.97;;;1.16;100.00
45357;BME280;31092;51.924;21.448;2023-04-06T07:43:12;100582.63;;;1.69;100.00
45357;BME280;31092;51.924;21.448;2023-04-06T07:45:38;100514.97;;;1.20;100.00
45357;BME280;31092;51.924;21.448;2023-04-06T07:48:03;100598.41;;;1.58;100.00
45357;BME280;31092;51.924;21.448;2023-04-06T07:50:29;100531.28;;;1.29;100.00
45357;BME280;31092;51.924;21.448;2023-04-06T07:52:54;100523.44;;;1.13;100.00
45357;BME280;31092;51.924;21.448;2023-04-06T07:55:20;100504.41;;;1.06;100.00
45357;BME280;31092;51.924;21.448;2023-04-06T07:57:46;100582.13;;;1.50;100.00
45357;BME280;31092;51.924;21.448;2023-04-06T08:00:12;100601.06;;;1.58;100.00
45357;BME280;31092;51.924;21.448;2023-04-06T08:02:38;100494.25;;;0.86;100.00
45357;BME280;31092;51.924;21.448;2023-04-06T08:05:03;100595.16;;;1.53;100.00
45357;BME280;31092;51.924;21.448;2023-04-06T08:07:29;100506.59;;;1.00;100.00
45357;BME280;31092;51.924;21.448;2023-04-06T08:09:55;100607.13;;;1.46;100.00
45357;BME280;31092;51.924;21.448;2023-04-06T08:12:20;100497.75;;;0.86;100.00
45357;BME280;31092;51.924;21.448;2023-04-06T08:14:46;100514.66;;;0.98;100.00
45357;BME280;31092;51.924;21.448;2023-04-06T08:17:11;100559.25;;;1.20;100.00
45357;BME280;31092;51.924;21.448;2023-04-06T08:19:36;100539.56;;;1.10;100.00
45357;BME280;31092;51.924;21.448;2023-04-06T08:22:02;100543.44;;;1.18;100.00
45357;BME280;31092;51.924;21.448;2023-04-06T08:24:28;100575.69;;;1.39;100.00
45357;BME280;31092;51.924;21.448;2023-04-06T08:26:53;100495.09;;;0.86;100.00
45357;BME280;31092;51.924;21.448;2023-04-06T08:29:19;100559.16;;;1.22;100.00
45357;BME280;31092;51.924;21.448;2023-04-06T08:31:44;100503.97;;;0.85;100.00
45357;BME280;31092;51.924;21.448;2023-04-06T08:34:10;100506.44;;;0.88;100.00
45357;BME280;31092;51.924;21.448;2023-04-06T08:36:36;100469.28;;;0.61;100.00
45357;BME280;31092;51.924;21.448;2023-04-06T08:39:01;100560.75;;;1.24;100.00
45357;BME280;31092;51.924;21.448;2023-04-06T08:41:27;100525.16;;;1.00;100.00
45357;BME280;31092;51.924;21.448;2023-04-06T08:46:21;100570.69;;;1.20;100.00
45357;BME280;31092;51.924;21.448;2023-04-06T08:48:47;100550.16;;;1.10;100.00
45357;BME280;31092;51.924;21.448;2023-04-06T08:51:15;100502.59;;;0.80;100.00
45357;BME280;31092;51.924;21.448;2023-04-06T08:53:40;100483.66;;;0.71;100.00
45357;BME280;31092;51.924;21.448;2023-04-06T08:56:07;100550.06;;;1.11;100.00
45357;BME280;31092;51.924;21.448;2023-04-06T08:58:39;100542.19;;;1.10;100.00
45357;BME280;31092;51.924;21.448;2023-04-06T09:01:11;100458.50;;;0.64;100.00
45357;BME280;31092;51.924;21.448;2023-04-06T09:03:40;100532.06;;;1.16;100.00
45357;BME280;31092;51.924;21.448;2023-04-06T09:06:06;100536.44;;;1.17;100.00
45357;BME280;31092;51.924;21.448;2023-04-06T09:08:38;100527.94;;;0.98;100.00
45357;BME280;31092;51.924;21.448;2023-04-06T09:11:04;100532.69;;;0.93;100.00
45357;BME280;31092;51.924;21.448;2023-04-06T09:13:30;100552.47;;;1.02;100.00
45357;BME280;31092;51.924;21.448;2023-04-06T09:16:02;100520.56;;;0.75;100.00
45357;BME280;31092;51.924;21.448;2023-04-06T09:18:32;100486.59;;;0.53;100.00
45357;BME280;31092;51.924;21.448;2023-04-06T09:21:02;100459.25;;;0.38;100.00
45357;BME280;31092;51.924;21.448;2023-04-06T09:23:28;100516.41;;;0.70;100.00
45357;BME280;31092;51.924;21.448;2023-04-06T09:26:14;100449.50;;;0.38;100.00
45357;BME280;31092;51.924;21.448;2023-04-06T09:28:48;100485.06;;;0.63;100.00
45357;BME280;31092;51.924;21.448;2023-04-06T09:31:24;100541.66;;;1.05;100.00
45357;BME280;31092;51.924;21.448;2023-04-06T09:33:50;100530.28;;;1.03;100.00
45357;BME280;31092;51.924;21.448;2023-04-06T09:36:15;100511.56;;;0.91;100.00
45357;BME280;31092;51.924;21.448;2023-04-06T09:39:02;100424.50;;;0.42;100.00
45357;BME280;31092;51.924;21.448;2023-04-06T09:41:33;100548.47;;;1.09;100.00
45357;BME280;31092;51.924;21.448;2023-04-06T09:44:25;100527.34;;;1.07;100.00
45357;BME280;31092;51.924;21.448;2023-04-06T09:46:53;100495.47;;;0.80;100.00
45357;BME280;31092;51.924;21.448;2023-04-06T09:49:19;100510.03;;;0.87;100.00
45357;BME280;31092;51.924;21.448;2023-04-06T09:51:46;100511.47;;;0.93;100.00
45357;BME280;31092;51.924;21.448;2023-04-06T09:54:21;100507.00;;;0.93;100.00
45357;BME280;31092;51.924;21.448;2023-04-06T09:56:51;100411.69;;;0.36;100.00
45357;BME280;31092;51.924;21.448;2023-04-06T10:01:51;100402.69;;;0.24;100.00
45357;BME280;31092;51.924;21.448;2023-04-06T10:04:29;100522.72;;;0.97;100.00
45357;BME280;31092;51.924;21.448;2023-04-06T10:06:59;100441.19;;;0.44;100.00
45357;BME280;31092;51.924;21.448;2023-04-06T10:09:28;100435.78;;;0.46;100.00
45357;BME280;31092;51.924;21.448;2023-04-06T10:12:02;100489.78;;;0.86;100.00
45357;BME280;31092;51.924;21.448;2023-04-06T10:14:28;100495.34;;;0.96;100.00
45357;BME280;31092;51.924;21.448;2023-04-06T10:16:53;100395.19;;;0.45;100.00
45357;BME280;31092;51.924;21.448;2023-04-06T10:19:25;100396.78;;;0.48;100.00
45357;BME280;31092;51.924;21.448;2023-04-06T10:21:55;100459.19;;;0.81;100.00
45357;BME280;31092;51.924;21.448;2023-04-06T10:24:24;100462.59;;;0.97;100.00
45357;BME280;31092;51.924;21.448;2023-04-06T10:27:02;100467.59;;;1.02;100.00
45357;BME280;31092;51.924;21.448;2023-04-06T10:29:28;100453.56;;;1.00;100.00
45357;BME280;31092;51.924;21.448;2023-04-06T10:31:53;100402.03;;;0.77;100.00
45357;BME280;31092;51.924;21.448;2023-04-06T10:34:20;100488.91;;;1.27;100.00
45357;BME280;31092;51.924;21.448;2023-04-06T10:36:46;100409.38;;;0.86;100.00
45357;BME280;31092;51.924;21.448;2023-04-06T10:39:12;100376.28;;;0.79;100.00
45357;BME280;31092;51.924;21.448;2023-04-06T10:41:42;100368.50;;;0.76;100.00
45357;BME280;31092;51.924;21.448;2023-04-06T10:44:08;100422.03;;;0.95;100.00
45357;BME280;31092;51.924;21.448;2023-04-06T10:46:52;100479.78;;;1.31;100.00
45357;BME280;31092;51.924;21.448;2023-04-06T10:49:18;100470.06;;;1.32;100.00
45357;BME280;31092;51.924;21.448;2023-04-06T10:51:44;100369.66;;;0.71;100.00
45357;BME280;31092;51.924;21.448;2023-04-06T10:54:11;100454.84;;;1.21;100.00
45357;BME280;31092;51.924;21.448;2023-04-06T10:56:37;100471.94;;;1.30;100.00
45357;BME280;31092;51.924;21.448;2023-04-06T10:59:05;100465.88;;;1.28;100.00
45357;BME280;31092;51.924;21.448;2023-04-06T11:01:31;100366.13;;;0.71;100.00
45357;BME280;31092;51.924;21.448;2023-04-06T11:03:57;100394.56;;;0.96;100.00
45357;BME280;31092;51.924;21.448;2023-04-06T11:06:27;100403.28;;;0.98;100.00
45357;BME280;31092;51.924;21.448;2023-04-06T11:08:54;100461.84;;;1.35;100.00
45357;BME280;31092;51.924;21.448;2023-04-06T11:11:22;100469.34;;;1.42;100.00
45357;BME280;31092;51.924;21.448;2023-04-06T11:16:30;100402.16;;;1.15;100.00
45357;BME280;31092;51.924;21.448;2023-04-06T11:19:00;100379.72;;;1.06;100.00
45357;BME280;31092;51.924;21.448;2023-04-06T11:21:42;100462.34;;;1.54;100.00
45357;BME280;31092;51.924;21.448;2023-04-06T11:24:16;100370.72;;;1.09;100.00
45357;BME280;31092;51.924;21.448;2023-04-06T11:29:13;100356.50;;;1.10;100.00
45357;BME280;31092;51.924;21.448;2023-04-06T11:31:46;100433.34;;;1.51;100.00
45357;BME280;31092;51.924;21.448;2023-04-06T11:34:17;100438.78;;;1.62;100.00
45357;BME280;31092;51.924;21.448;2023-04-06T11:36:44;100357.06;;;1.15;100.00
45357;BME280;31092;51.924;21.448;2023-04-06T11:39:11;100422.00;;;1.62;100.00
45357;BME280;31092;51.924;21.448;2023-04-06T11:41:36;100351.00;;;1.13;100.00
45357;BME280;31092;51.924;21.448;2023-04-06T11:44:02;100442.72;;;1.70;100.00
45357;BME280;31092;51.924;21.448;2023-04-06T11:46:28;100389.16;;;1.37;100.00
45357;BME280;31092;51.924;21.448;2023-04-06T11:48:58;100342.53;;;1.20;100.00
45357;BME280;31092;51.924;21.448;2023-04-06T11:51:25;100348.38;;;1.26;100.00
45357;BME280;31092;51.924;21.448;2023-04-06T11:53:51;100424.34;;;1.66;100.00
45357;BME280;31092;51.924;21.448;2023-04-06T11:56:30;100348.59;;;1.23;100.00
45357;BME280;31092;51.924;21.448;2023-04-06T11:58:57;100432.66;;;1.75;100.00
45357;BME280;31092;51.924;21.448;2023-04-06T12:01:23;100333.91;;;1.17;100.00
45357;BME280;31092;51.924;21.448;2023-04-06T12:03:50;100420.09;;;1.77;100.00
45357;BME280;31092;51.924;21.448;2023-04-06T12:06:17;100377.41;;;1.54;100.00
45357;BME280;31092;51.924;21.448;2023-04-06T12:08:42;100317.50;;;1.25;100.00
45357;BME280;31092;51.924;21.448;2023-04-06T12:11:08;100357.09;;;1.40;100.00
45357;BME280;31092;51.924;21.448;2023-04-06T12:13:34;100422.69;;;1.78;100.00
45357;BME280;31092;51.924;21.448;2023-04-06T12:16:00;100350.44;;;1.48;100.00
45357;BME280;31092;51.924;21.448;2023-04-06T12:18:25;100417.56;;;1.88;100.00
45357;BME280;31092;51.924;21.448;2023-04-06T12:20:51;100403.44;;;1.87;100.00
45357;BME280;31092;51.924;21.448;2023-04-06T12:23:18;100368.50;;;1.68;100.00
45357;BME280;31092;51.924;21.448;2023-04-06T12:25:44;100295.97;;;1.29;100.00
45357;BME280;31092;51.924;21.448;2023-04-06T12:28:09;100393.22;;;1.81;100.00
45357;BME280;31092;51.924;21.448;2023-04-06T12:30:35;100359.56;;;1.56;100.00
45357;BME280;31092;51.924;21.448;2023-04-06T12:33:00;100354.34;;;1.55;100.00
45357;BME280;31092;51.924;21.448;2023-04-06T12:35:26;100297.66;;;1.30;100.00
45357;BME280;31092;51.924;21.448;2023-04-06T12:37:52;100372.19;;;1.65;100.00
45357;BME280;31092;51.924;21.448;2023-04-06T12:40:18;100323.78;;;1.36;100.00
45357;BME280;31092;51.924;21.448;2023-04-06T12:42:43;100382.41;;;1.72;100.00